Time;durP1;ratioP1;P1;durP2;ratioP2;P2;SDS_P1;SDS_P2;PMS_P1;PMS_P2;Temp;Humidity;BMP_temperature;BMP_pressure;BME280_temperature;BME280_humidity;BME280_pressure;Samples;Min_cycle;Max_cycle;Signal;HPM_P1;HPM_P2
2022/08/24 00:00:39;;;;;;;10.20;9.90;;;19.10;99.90;;;;;;5102984;28;20233;-83
2022/08/24 00:03:10;;;;;;;10.00;9.70;;;19.00;99.90;;;;;;5103115;28;20213;-83
2022/08/24 00:05:38;;;;;;;10.05;9.75;;;19.00;99.90;;;;;;5102623;28;20598;-83
2022/08/24 00:08:09;;;;;;;10.10;9.80;;;19.00;99.90;;;;;;5102635;28;20234;-83
2022/08/24 00:10:39;;;;;;;10.18;9.88;;;18.90;99.90;;;;;;5102402;28;20252;-83
2022/08/24 00:13:08;;;;;;;10.10;9.80;;;18.90;99.90;;;;;;5102535;28;20233;-83
2022/08/24 00:15:48;;;;;;;10.15;9.85;;;18.80;99.90;;;;;;5102055;28;20229;-83
2022/08/24 00:18:16;;;;;;;10.48;10.18;;;18.80;99.90;;;;;;5102396;28;20272;-83
2022/08/24 00:20:47;;;;;;;10.30;10.00;;;18.70;99.90;;;;;;5102031;28;20278;-83
2022/08/24 00:23:15;;;;;;;10.20;9.90;;;18.70;99.90;;;;;;5103001;28;20225;-84
2022/08/24 00:25:45;;;;;;;10.13;9.82;;;18.60;99.90;;;;;;5102778;28;20233;-84
2022/08/24 00:28:14;;;;;;;10.30;10.00;;;18.60;99.90;;;;;;5106966;28;20218;-84
2022/08/24 00:30:54;;;;;;;10.10;9.80;;;18.50;99.90;;;;;;5103510;28;20240;-84
2022/08/24 00:33:22;;;;;;;10.02;9.73;;;18.40;99.90;;;;;;5103131;28;20277;-84
2022/08/24 00:35:53;;;;;;;10.30;10.00;;;18.40;99.90;;;;;;5101635;28;20222;-84
2022/08/24 00:38:23;;;;;;;10.20;9.90;;;18.30;99.90;;;;;;5102426;28;20214;-84
2022/08/24 00:40:52;;;;;;;10.23;9.93;;;18.30;99.90;;;;;;5104236;28;20244;-84
2022/08/24 00:43:29;;;;;;;10.27;9.98;;;18.20;99.90;;;;;;5104707;28;20313;-84
2022/08/24 00:46:15;;;;;;;10.23;9.93;;;18.10;99.90;;;;;;5104797;28;20235;-84
2022/08/24 00:48:54;;;;;;;10.32;10.02;;;18.00;99.90;;;;;;5105834;28;20221;-84
2022/08/24 00:51:31;;;;;;;10.30;10.00;;;18.00;99.90;;;;;;5106874;28;20226;-84
2022/08/24 00:54:10;;;;;;;10.25;9.95;;;17.90;99.90;;;;;;5106086;28;20233;-84
2022/08/24 00:56:50;;;;;;;10.45;10.15;;;17.80;99.90;;;;;;5105272;28;20243;-84
2022/08/24 00:59:26;;;;;;;10.40;10.10;;;17.70;99.90;;;;;;5106373;28;20221;-84
2022/08/24 01:02:04;;;;;;;10.40;10.10;;;17.70;99.90;;;;;;5107156;28;20284;-84
2022/08/24 01:04:42;;;;;;;10.40;10.10;;;17.60;99.90;;;;;;5107616;28;20239;-84
2022/08/24 01:07:12;;;;;;;10.60;10.30;;;17.50;99.90;;;;;;5106045;28;20304;-84
2022/08/24 01:09:42;;;;;;;10.43;10.13;;;17.50;99.90;;;;;;5105908;28;20230;-83
2022/08/24 01:12:11;;;;;;;10.60;10.30;;;17.40;99.90;;;;;;5106332;28;20233;-83
2022/08/24 01:14:41;;;;;;;10.30;10.00;;;17.40;99.90;;;;;;5105664;28;20237;-84
2022/08/24 01:19:59;;;;;;;10.50;10.20;;;17.20;99.90;;;;;;5105348;28;20222;-84
2022/08/24 01:22:46;;;;;;;10.30;10.00;;;17.20;99.90;;;;;;5105339;28;20237;-83
2022/08/24 01:25:16;;;;;;;10.40;10.10;;;17.10;99.90;;;;;;5105690;28;20275;-84
2022/08/24 01:27:46;;;;;;;10.40;10.10;;;17.00;99.90;;;;;;5105143;28;20253;-84
2022/08/24 01:30:22;;;;;;;10.10;9.80;;;17.00;99.90;;;;;;5104372;28;20226;-84
2022/08/24 01:32:59;;;;;;;10.50;10.20;;;16.90;99.90;;;;;;5104552;28;20236;-84
2022/08/24 01:35:28;;;;;;;10.18;9.88;;;16.90;99.90;;;;;;5103513;28;20228;-83
2022/08/24 01:38:10;;;;;;;10.43;10.13;;;16.80;99.90;;;;;;5104514;28;20291;-84
2022/08/24 01:40:45;;;;;;;10.32;10.02;;;16.80;99.90;;;;;;5104262;28;20287;-84
2022/08/24 01:43:15;;;;;;;10.30;10.00;;;16.70;99.90;;;;;;5104200;28;20236;-84
2022/08/24 01:45:44;;;;;;;10.48;10.18;;;16.70;99.90;;;;;;5103521;28;20229;-83
2022/08/24 01:48:25;;;;;;;10.50;10.20;;;16.60;99.90;;;;;;5104324;28;20229;-84
2022/08/24 01:50:53;;;;;;;10.50;10.20;;;16.60;99.90;;;;;;5104020;28;20217;-83
2022/08/24 01:53:22;;;;;;;10.40;10.10;;;16.60;99.90;;;;;;5104287;28;20256;-83
2022/08/24 01:55:53;;;;;;;10.68;10.38;;;16.50;99.90;;;;;;5102929;28;20727;-83
2022/08/24 01:58:21;;;;;;;10.48;10.18;;;16.50;99.90;;;;;;5103670;28;20269;-83
2022/08/24 02:00:49;;;;;;;10.50;10.20;;;16.40;99.90;;;;;;5103881;28;20229;-83
2022/08/24 02:03:21;;;;;;;10.35;10.05;;;16.40;99.90;;;;;;5103878;28;20225;-83
2022/08/24 02:05:48;;;;;;;10.38;10.07;;;16.30;99.90;;;;;;5102838;28;20325;-84
2022/08/24 02:08:20;;;;;;;10.32;10.02;;;16.30;99.90;;;;;;5103744;28;20257;-83
2022/08/24 02:10:49;;;;;;;10.30;10.00;;;16.30;99.90;;;;;;5103422;28;20226;-83
2022/08/24 02:13:30;;;;;;;10.40;10.10;;;16.30;99.90;;;;;;5103758;28;20229;-83
2022/08/24 02:15:57;;;;;;;10.50;10.20;;;16.20;99.90;;;;;;5103643;28;20286;-83
2022/08/24 02:18:26;;;;;;;10.50;10.20;;;16.10;99.90;;;;;;5103759;28;20256;-83
2022/08/24 02:20:56;;;;;;;10.40;10.10;;;16.10;99.90;;;;;;5103267;28;20276;-83
2022/08/24 02:23:26;;;;;;;10.38;10.07;;;16.00;99.90;;;;;;5103586;28;20248;-84
2022/08/24 02:25:54;;;;;;;10.63;10.32;;;15.90;99.90;;;;;;5103050;28;20234;-82
2022/08/24 02:28:36;;;;;;;10.32;10.02;;;15.90;99.90;;;;;;5102999;28;20224;-83
2022/08/24 02:31:13;;;;;;;10.70;10.40;;;15.90;99.90;;;;;;5103663;28;20269;-83
2022/08/24 02:33:42;;;;;;;10.25;9.95;;;15.90;99.90;;;;;;5103986;28;20280;-83
2022/08/24 02:36:12;;;;;;;10.30;10.00;;;15.80;99.90;;;;;;5103174;28;20253;-83
2022/08/24 02:38:39;;;;;;;10.38;10.07;;;15.80;99.90;;;;;;5103493;28;20260;-83
2022/08/24 02:41:11;;;;;;;10.40;10.10;;;15.80;99.90;;;;;;5106976;28;20229;-83
2022/08/24 02:43:40;;;;;;;10.48;10.18;;;15.70;99.90;;;;;;5104573;28;20233;-83
2022/08/24 02:46:08;;;;;;;10.50;10.20;;;15.70;99.90;;;;;;5112521;28;20233;-83
2022/08/24 02:48:37;;;;;;;10.30;10.00;;;15.70;99.90;;;;;;5105503;28;20268;-84
2022/08/24 02:51:06;;;;;;;10.25;9.95;;;15.70;99.90;;;;;;5109117;28;20229;-83
2022/08/24 02:53:35;;;;;;;10.20;9.90;;;15.70;99.90;;;;;;5106823;28;20225;-83
2022/08/24 02:56:06;;;;;;;10.38;10.07;;;15.60;99.90;;;;;;5104321;28;20233;-83
2022/08/24 02:58:35;;;;;;;10.00;9.70;;;15.60;99.90;;;;;;5104068;28;20273;-83
2022/08/24 03:01:13;;;;;;;10.20;9.90;;;15.60;99.90;;;;;;5103302;28;20241;-83
2022/08/24 03:04:02;;;;;;;10.18;9.88;;;15.50;99.90;;;;;;5104345;28;20264;-83
2022/08/24 03:06:29;;;;;;;9.95;9.65;;;15.50;99.90;;;;;;5096584;28;20244;-83
2022/08/24 03:08:59;;;;;;;10.00;9.70;;;15.50;99.90;;;;;;5103382;28;20225;-83
2022/08/24 03:11:28;;;;;;;10.10;9.80;;;15.50;99.90;;;;;;5103543;28;20286;-84
2022/08/24 03:13:58;;;;;;;10.00;9.70;;;15.40;99.90;;;;;;5103772;28;20236;-83
2022/08/24 03:16:35;;;;;;;9.90;9.60;;;15.40;99.90;;;;;;5102760;28;20306;-83
2022/08/24 03:19:06;;;;;;;10.07;9.77;;;15.40;99.90;;;;;;5103262;28;20231;-83
2022/08/24 03:21:34;;;;;;;10.18;9.88;;;15.30;99.90;;;;;;5103540;28;20283;-82
2022/08/24 03:24:05;;;;;;;9.90;9.60;;;15.30;99.90;;;;;;5103091;28;20260;-83
2022/08/24 03:26:34;;;;;;;9.98;9.68;;;15.30;99.90;;;;;;5102198;28;20229;-83
2022/08/24 03:29:03;;;;;;;10.20;9.90;;;15.20;99.90;;;;;;5102831;28;20268;-83
2022/08/24 03:34:20;;;;;;;10.18;9.88;;;15.20;99.90;;;;;;5102346;28;20224;-83
2022/08/24 03:36:49;;;;;;;10.00;9.70;;;15.20;99.90;;;;;;5102802;28;20232;-83
2022/08/24 03:39:18;;;;;;;10.20;9.90;;;15.20;99.90;;;;;;5102781;28;20237;-83
2022/08/24 03:41:48;;;;;;;9.80;9.50;;;15.20;99.90;;;;;;5101898;28;20234;-83
2022/08/24 03:44:17;;;;;;;9.90;9.60;;;15.20;99.90;;;;;;5101477;28;20254;-83
2022/08/24 03:46:55;;;;;;;9.90;9.60;;;15.10;99.90;;;;;;5101185;28;20241;-83
2022/08/24 03:49:25;;;;;;;10.13;9.82;;;15.10;99.90;;;;;;5101870;28;20233;-83
2022/08/24 03:51:55;;;;;;;10.10;9.80;;;15.10;99.90;;;;;;5102300;28;20240;-83
2022/08/24 03:54:24;;;;;;;9.70;9.40;;;15.10;99.90;;;;;;5101525;28;20259;-83
2022/08/24 03:56:54;;;;;;;9.82;9.52;;;15.00;99.90;;;;;;5101655;28;20331;-83
2022/08/24 03:59:23;;;;;;;10.15;9.85;;;15.00;99.90;;;;;;5102163;28;20260;-83
2022/08/24 04:01:56;;;;;;;10.50;10.20;;;15.00;99.90;;;;;;5101777;28;20256;-83
2022/08/24 04:04:24;;;;;;;10.27;9.98;;;15.00;99.90;;;;;;5101376;28;20230;-83
2022/08/24 04:06:52;;;;;;;10.70;10.40;;;15.00;99.90;;;;;;5100989;28;20267;-84
2022/08/24 04:09:23;;;;;;;10.68;10.38;;;14.90;99.90;;;;;;5102092;28;20283;-83
2022/08/24 04:11:51;;;;;;;11.00;10.60;;;15.00;99.90;;;;;;5102070;28;20230;-83
2022/08/24 04:14:21;;;;;;;10.88;10.57;;;14.90;99.90;;;;;;5100730;28;20241;-83
2022/08/24 04:16:50;;;;;;;10.60;10.30;;;14.90;99.90;;;;;;5100838;28;20241;-83
2022/08/24 04:19:32;;;;;;;10.90;10.57;;;14.90;99.90;;;;;;5101187;28;20264;-83
2022/08/24 04:21:59;;;;;;;10.52;10.23;;;14.90;99.90;;;;;;5101034;28;20233;-83
2022/08/24 04:24:27;;;;;;;10.75;10.45;;;14.90;99.90;;;;;;5101019;28;20230;-84
2022/08/24 04:26:59;;;;;;;10.73;10.43;;;14.90;99.90;;;;;;5101969;28;20233;-83
2022/08/24 04:29:29;;;;;;;10.80;10.50;;;14.90;99.90;;;;;;5101406;28;20233;-83
2022/08/24 04:31:57;;;;;;;10.50;10.20;;;14.80;99.90;;;;;;5101482;28;20313;-83
2022/08/24 04:34:28;;;;;;;10.32;10.02;;;14.80;99.90;;;;;;5100941;28;20239;-83
2022/08/24 04:39:42;;;;;;;10.43;10.13;;;14.80;99.90;;;;;;5100765;28;20235;-83
2022/08/24 04:42:11;;;;;;;10.40;10.10;;;14.80;99.90;;;;;;5106056;28;20237;-83
2022/08/24 04:44:40;;;;;;;10.40;10.10;;;14.80;99.90;;;;;;5101734;28;20237;-83
2022/08/24 04:47:10;;;;;;;10.50;10.20;;;14.80;99.90;;;;;;5100952;28;20229;-83
2022/08/24 04:49:57;;;;;;;10.70;10.40;;;14.80;99.90;;;;;;5100655;28;20268;-83
2022/08/24 04:52:29;;;;;;;10.40;10.10;;;14.80;99.90;;;;;;5101041;28;20221;-83
2022/08/24 04:54:56;;;;;;;10.25;9.95;;;14.80;99.90;;;;;;5101038;28;20225;-83
2022/08/24 04:57:25;;;;;;;10.25;9.95;;;14.80;99.90;;;;;;5101236;28;20234;-83
2022/08/24 04:59:56;;;;;;;10.70;10.40;;;14.80;99.90;;;;;;5101180;28;20256;-83
2022/08/24 05:02:33;;;;;;;10.57;10.27;;;14.90;99.90;;;;;;5101154;28;20285;-83
2022/08/24 05:05:12;;;;;;;10.38;10.07;;;14.90;99.90;;;;;;5100839;28;20239;-83
2022/08/24 05:07:39;;;;;;;10.55;10.25;;;14.90;99.90;;;;;;5135661;22;20267;-80
2022/08/24 05:10:10;;;;;;;10.52;10.23;;;15.00;99.90;;;;;;5122375;28;20220;-81
2022/08/24 05:12:38;;;;;;;10.50;10.20;;;15.00;99.90;;;;;;5121885;28;20228;-80
2022/08/24 05:15:08;;;;;;;10.65;10.35;;;15.00;99.90;;;;;;5121627;28;20229;-81
2022/08/24 05:17:39;;;;;;;10.68;10.38;;;15.10;99.90;;;;;;5120457;28;20292;-81
2022/08/24 05:20:11;;;;;;;10.80;10.50;;;15.10;99.90;;;;;;5120283;28;20235;-80
2022/08/24 05:22:38;;;;;;;10.90;10.60;;;15.10;99.90;;;;;;5119852;28;20224;-81
2022/08/24 05:25:07;;;;;;;10.40;10.10;;;15.20;99.90;;;;;;5118522;27;20316;-79
2022/08/24 05:27:36;;;;;;;10.20;9.90;;;15.30;99.90;;;;;;5123961;28;20239;-81
2022/08/24 05:30:06;;;;;;;10.02;9.73;;;15.40;99.90;;;;;;5124134;28;20263;-81
2022/08/24 05:32:35;;;;;;;10.02;9.73;;;15.50;99.90;;;;;;5123824;28;20231;-81
2022/08/24 05:35:05;;;;;;;10.45;10.15;;;15.60;99.90;;;;;;5123439;28;20316;-80
2022/08/24 05:37:44;;;;;;;10.30;10.00;;;15.70;99.90;;;;;;5123750;28;20239;-80
2022/08/24 05:40:24;;;;;;;10.40;10.10;;;15.90;99.90;;;;;;5123622;28;20320;-80
2022/08/24 05:42:51;;;;;;;10.48;10.18;;;16.00;99.90;;;;;;5123914;28;20232;-79
2022/08/24 05:45:20;;;;;;;10.25;9.95;;;16.10;99.90;;;;;;5116796;28;20382;-82
2022/08/24 05:47:49;;;;;;;10.63;10.32;;;16.10;99.90;;;;;;5124460;28;20766;-81
2022/08/24 05:50:19;;;;;;;10.57;10.27;;;16.20;99.90;;;;;;5123132;28;20228;-78
2022/08/24 05:52:51;;;;;;;10.60;10.30;;;16.30;99.90;;;;;;5119413;28;20410;-78
2022/08/24 05:55:19;;;;;;;10.35;10.05;;;16.40;99.90;;;;;;5121370;28;20239;-80
2022/08/24 05:57:49;;;;;;;10.30;10.00;;;16.50;99.90;;;;;;5122548;28;20697;-77
2022/08/24 06:00:17;;;;;;;10.27;9.98;;;16.50;99.90;;;;;;5122537;28;20224;-80
2022/08/24 06:02:47;;;;;;;10.60;10.30;;;16.60;99.90;;;;;;5122220;28;20237;-79
2022/08/24 06:05:15;;;;;;;10.60;10.30;;;16.70;99.90;;;;;;5120021;28;20315;-78
2022/08/24 06:07:48;;;;;;;10.38;10.07;;;16.90;99.90;;;;;;5125902;28;20237;-79
2022/08/24 06:10:19;;;;;;;10.82;10.52;;;16.90;99.90;;;;;;5138873;28;20229;-82
2022/08/24 06:12:47;;;;;;;10.57;10.27;;;17.00;99.90;;;;;;5135252;28;20257;-78
2022/08/24 06:15:15;;;;;;;10.52;10.23;;;17.10;99.90;;;;;;5122545;28;20337;-78
2022/08/24 06:17:43;;;;;;;10.70;10.40;;;17.10;99.90;;;;;;5122966;28;20240;-78
2022/08/24 06:20:12;;;;;;;10.52;10.23;;;17.20;99.90;;;;;;5123845;28;20233;-79
2022/08/24 06:22:41;;;;;;;11.30;10.90;;;17.30;99.90;;;;;;5124018;28;20327;-79
2022/08/24 06:27:59;;;;;;;10.60;10.30;;;17.50;99.90;;;;;;5124085;28;20229;-79
2022/08/24 06:30:29;;;;;;;11.20;10.80;;;17.70;99.90;;;;;;5103714;28;20209;-81
2022/08/24 06:32:59;;;;;;;10.90;10.60;;;17.90;99.90;;;;;;5103123;28;20280;-79
2022/08/24 06:35:29;;;;;;;10.90;10.60;;;18.00;99.90;;;;;;5103895;28;20251;-82
2022/08/24 06:37:57;;;;;;;10.48;10.18;;;18.20;99.90;;;;;;5119511;28;20275;-81
2022/08/24 06:40:25;;;;;;;10.80;10.50;;;18.30;99.90;;;;;;5122993;28;20228;-80
2022/08/24 06:42:53;;;;;;;10.60;10.30;;;18.50;99.90;;;;;;5124159;28;20236;-81
2022/08/24 06:45:24;;;;;;;11.27;10.88;;;18.70;99.90;;;;;;5121916;28;20282;-80
2022/08/24 06:47:51;;;;;;;10.50;10.20;;;18.80;99.90;;;;;;5124359;28;20237;-80
2022/08/24 06:50:19;;;;;;;10.40;10.10;;;19.00;99.90;;;;;;5123186;28;20235;-80
2022/08/24 06:52:47;;;;;;;10.70;10.40;;;19.10;99.90;;;;;;5122908;28;20308;-83
2022/08/24 06:55:14;;;;;;;10.68;10.38;;;19.20;99.90;;;;;;5122509;28;20268;-81
2022/08/24 06:57:42;;;;;;;11.20;10.80;;;19.30;99.90;;;;;;5123552;28;20268;-80
2022/08/24 07:00:12;;;;;;;10.73;10.43;;;19.50;99.90;;;;;;5122753;28;20225;-81
2022/08/24 07:02:42;;;;;;;10.57;10.27;;;19.60;99.90;;;;;;5124123;28;20286;-80
2022/08/24 07:05:12;;;;;;;10.60;10.30;;;19.80;99.90;;;;;;5121978;28;20232;-80
2022/08/24 07:07:42;;;;;;;10.32;10.02;;;19.90;99.90;;;;;;5122862;28;20237;-84
2022/08/24 07:10:12;;;;;;;10.73;10.43;;;20.00;99.90;;;;;;5123544;28;20255;-85
2022/08/24 07:12:41;;;;;;;10.80;10.50;;;20.20;99.90;;;;;;5123374;28;20261;-81
2022/08/24 07:15:10;;;;;;;11.00;10.70;;;20.30;99.90;;;;;;5124104;28;20241;-83
2022/08/24 07:17:41;;;;;;;10.57;10.27;;;20.40;99.90;;;;;;5123136;28;20237;-81
2022/08/24 07:20:11;;;;;;;10.57;10.27;;;20.60;99.90;;;;;;5125358;28;20233;-84
2022/08/24 07:22:39;;;;;;;10.77;10.48;;;20.70;99.90;;;;;;5123240;28;20235;-83
2022/08/24 07:25:08;;;;;;;10.63;10.32;;;20.90;99.90;;;;;;5121576;28;20237;-80
2022/08/24 07:27:35;;;;;;;10.50;10.20;;;21.00;99.90;;;;;;5121917;28;20236;-80
2022/08/24 07:30:03;;;;;;;10.70;10.40;;;21.10;99.90;;;;;;5125033;28;20292;-78
2022/08/24 07:32:32;;;;;;;10.75;10.45;;;21.10;99.90;;;;;;5121523;28;20264;-81
2022/08/24 07:35:03;;;;;;;10.88;10.57;;;21.20;99.90;;;;;;5122589;28;20228;-82
2022/08/24 07:37:36;;;;;;;10.93;10.63;;;21.10;99.90;;;;;;5123532;28;20267;-82
2022/08/24 07:40:06;;;;;;;11.00;10.70;;;21.20;99.90;;;;;;5125522;28;20269;-86
2022/08/24 07:42:35;;;;;;;11.30;10.90;;;21.40;99.90;;;;;;5124649;28;20233;-86
2022/08/24 07:45:04;;;;;;;11.02;10.73;;;21.50;99.90;;;;;;5124177;28;20229;-87
2022/08/24 07:47:33;;;;;;;11.00;10.70;;;21.50;99.90;;;;;;5122271;28;20766;-86
2022/08/24 07:50:11;;;;;;;11.00;10.70;;;21.60;99.90;;;;;;5122504;28;20228;-86
2022/08/24 07:52:41;;;;;;;10.95;10.65;;;21.80;99.90;;;;;;5122910;28;20224;-86
2022/08/24 07:55:10;;;;;;;11.00;10.70;;;22.00;99.90;;;;;;5123803;28;20311;-86
2022/08/24 07:57:40;;;;;;;10.85;10.55;;;22.00;99.90;;;;;;5125549;28;20240;-86
2022/08/24 08:00:20;;;;;;;10.80;10.50;;;22.00;99.90;;;;;;5122471;28;20225;-86
2022/08/24 08:02:49;;;;;;;11.07;10.77;;;22.20;99.90;;;;;;5123097;28;20236;-85
2022/08/24 08:05:26;;;;;;;10.98;10.68;;;22.30;99.90;;;;;;5135935;28;20217;-85
2022/08/24 08:07:57;;;;;;;10.75;10.45;;;22.50;99.90;;;;;;5138111;27;20262;-86
2022/08/24 08:10:29;;;;;;;11.07;10.77;;;22.50;99.90;;;;;;5137415;27;20286;-86
2022/08/24 08:12:57;;;;;;;11.15;10.85;;;22.70;99.90;;;;;;5123734;28;20313;-86
2022/08/24 08:15:25;;;;;;;11.30;11.00;;;22.70;99.90;;;;;;5124009;28;20255;-85
2022/08/24 08:17:55;;;;;;;11.18;10.88;;;22.90;99.90;;;;;;5119290;28;20244;-85
2022/08/24 08:20:33;;;;;;;11.23;10.93;;;23.00;99.90;;;;;;5116243;28;20972;-86
2022/08/24 08:25:50;;;;;;;11.23;10.93;;;23.00;99.90;;;;;;5122920;28;20307;-86
2022/08/24 08:28:19;;;;;;;11.18;10.88;;;23.00;99.90;;;;;;5122562;28;20303;-86
2022/08/24 08:30:48;;;;;;;11.40;11.10;;;23.10;99.90;;;;;;5124299;28;20294;-86
2022/08/24 08:33:17;;;;;;;11.35;11.05;;;23.20;99.90;;;;;;5123628;28;20225;-84
2022/08/24 08:35:58;;;;;;;11.10;10.80;;;23.30;99.90;;;;;;5125151;28;20263;-84
2022/08/24 08:38:27;;;;;;;11.40;11.10;;;23.30;99.90;;;;;;5124100;28;20274;-83
2022/08/24 08:41:03;;;;;;;11.00;10.70;;;23.50;99.90;;;;;;5125034;28;20233;-82
2022/08/24 08:43:42;;;;;;;11.15;10.85;;;23.70;99.90;;;;;;5124584;28;20259;-82
2022/08/24 08:46:38;;;;;;;11.38;11.07;;;24.00;99.90;;;;;;5122391;28;20232;-82
2022/08/24 08:49:35;;;;;;;11.52;11.18;;;24.10;99.90;;;;;;5122788;28;20320;-82
2022/08/24 08:52:39;;;;;;;11.38;11.07;;;24.40;99.90;;;;;;5125204;28;20217;-82
2022/08/24 08:55:25;;;;;;;11.70;11.30;;;24.70;99.90;;;;;;5124470;28;20219;-80
2022/08/24 08:58:11;;;;;;;11.45;11.15;;;25.00;99.90;;;;;;5126591;28;20240;-80
2022/08/24 09:01:01;;;;;;;11.45;11.13;;;25.30;99.90;;;;;;5136979;27;20233;-81
2022/08/24 09:03:46;;;;;;;11.75;11.35;;;25.70;99.90;;;;;;5142188;28;20240;-81
2022/08/24 09:06:33;;;;;;;11.90;11.50;;;26.10;99.90;;;;;;5142661;27;20213;-81
2022/08/24 09:09:39;;;;;;;11.70;11.30;;;26.30;99.90;;;;;;5142453;27;20224;-81
2022/08/24 09:12:24;;;;;;;11.30;11.00;;;26.40;99.90;;;;;;5092584;27;20225;-81
2022/08/24 09:15:21;;;;;;;10.75;10.45;;;26.50;99.90;;;;;;5142838;27;20247;-82
2022/08/24 09:18:24;;;;;;;10.80;10.50;;;26.50;99.90;;;;;;5143686;27;20213;-83
2022/08/24 09:21:14;;;;;;;10.80;10.50;;;26.50;99.90;;;;;;5142235;27;20225;-83
2022/08/24 09:24:00;;;;;;;10.70;10.40;;;26.60;99.90;;;;;;5143191;27;20231;-81
2022/08/24 09:26:40;;;;;;;10.85;10.55;;;26.60;99.90;;;;;;5143339;27;20254;-84
2022/08/24 09:29:15;;;;;;;11.45;11.15;;;26.80;99.90;;;;;;5144083;27;20219;-82
2022/08/24 09:32:02;;;;;;;11.40;11.10;;;26.90;99.90;;;;;;5143263;27;20250;-83
2022/08/24 09:34:41;;;;;;;11.40;11.10;;;27.20;99.90;;;;;;5126501;28;20319;-84
2022/08/24 09:37:37;;;;;;;11.25;10.95;;;27.60;99.90;;;;;;5124328;28;20225;-84
2022/08/24 09:40:41;;;;;;;11.55;11.18;;;28.00;99.90;;;;;;5131459;27;20219;-84
2022/08/24 09:44:05;;;;;;;11.35;11.05;;;28.10;99.90;;;;;;5141384;28;20220;-83
2022/08/24 09:47:36;;;;;;;11.60;11.23;;;28.30;99.90;;;;;;5085473;28;20742;-84
2022/08/24 09:50:48;;;;;;;11.70;11.30;;;28.30;99.90;;;;;;5129343;28;20232;-83
2022/08/24 09:54:12;;;;;;;11.73;11.32;;;28.10;99.90;;;;;;5124474;28;20277;-84
2022/08/24 09:57:00;;;;;;;11.68;11.27;;;28.20;99.90;;;;;;5109146;28;20243;-84
2022/08/24 10:00:11;;;;;;;12.05;11.65;;;28.00;99.90;;;;;;5126022;28;20233;-84
2022/08/24 10:02:59;;;;;;;11.80;11.40;;;28.10;99.90;;;;;;5125306;28;20310;-83
2022/08/24 10:05:44;;;;;;;11.90;11.50;;;28.40;99.90;;;;;;5123724;28;20224;-82
2022/08/24 10:08:34;;;;;;;12.00;11.60;;;28.40;99.90;;;;;;5124494;28;20240;-82
2022/08/24 10:11:12;;;;;;;11.90;11.50;;;28.50;99.90;;;;;;5123015;27;20236;-82
2022/08/24 10:13:54;;;;;;;11.90;11.50;;;29.00;99.90;;;;;;5127823;28;20243;-84
2022/08/24 10:16:56;;;;;;;11.85;11.45;;;29.30;99.90;;;;;;5123652;28;20223;-83
2022/08/24 10:19:50;;;;;;;11.68;11.27;;;29.40;99.90;;;;;;5125881;28;20232;-83
2022/08/24 10:22:37;;;;;;;11.50;11.20;;;29.40;99.90;;;;;;5125447;28;20232;-83
2022/08/24 10:25:27;;;;;;;11.30;11.00;;;29.80;99.90;;;;;;5125552;28;20221;-83
2022/08/24 10:28:19;;;;;;;11.35;11.05;;;30.30;99.90;;;;;;5127709;28;20240;-82
2022/08/24 10:31:07;;;;;;;11.27;10.98;;;30.10;99.90;;;;;;5123916;28;20362;-81
2022/08/24 10:33:54;;;;;;;11.40;11.10;;;30.00;99.90;;;;;;5124791;28;20235;-82
2022/08/24 10:37:08;;;;;;;11.75;11.35;;;30.00;99.90;;;;;;5123528;28;20232;-83
2022/08/24 10:40:04;;;;;;;11.27;10.98;;;30.10;99.90;;;;;;5117914;28;20319;-82
2022/08/24 10:46:36;;;;;;;11.10;10.80;;;29.60;99.90;;;;;;5124456;28;20271;-82
2022/08/24 10:50:08;;;;;;;11.40;11.10;;;29.30;99.90;;;;;;5124238;28;20232;-80
2022/08/24 10:53:13;;;;;;;11.07;10.77;;;29.10;99.90;;;;;;5125378;28;20240;-81
2022/08/24 10:55:44;;;;;;;11.45;11.13;;;29.40;99.90;;;;;;5123937;28;20235;-80
2022/08/24 10:58:42;;;;;;;11.45;11.15;;;29.60;99.90;;;;;;5124320;28;20315;-80
2022/08/24 11:01:26;;;;;;;11.50;11.20;;;29.90;99.90;;;;;;5125693;28;20286;-81
2022/08/24 11:04:05;;;;;;;11.40;11.10;;;30.10;99.90;;;;;;5124307;28;20224;-80
2022/08/24 11:06:45;;;;;;;11.32;11.02;;;29.80;99.90;;;;;;5124670;28;20236;-82
2022/08/24 11:09:15;;;;;;;11.30;11.00;;;29.50;99.90;;;;;;5124246;28;20235;-82
2022/08/24 11:11:48;;;;;;;11.25;10.95;;;29.20;99.90;;;;;;5124831;28;20221;-82
2022/08/24 11:14:29;;;;;;;11.52;11.18;;;29.20;99.90;;;;;;5118961;28;20221;-80
2022/08/24 11:17:16;;;;;;;11.20;10.90;;;29.40;99.90;;;;;;5122583;28;20248;-81
2022/08/24 11:19:46;;;;;;;11.63;11.23;;;29.40;99.90;;;;;;5118194;28;20228;-80
2022/08/24 11:22:41;;;;;;;11.60;11.20;;;29.50;99.90;;;;;;5124496;28;20281;-82
2022/08/24 11:25:22;;;;;;;11.70;11.30;;;29.70;99.90;;;;;;5122318;28;20224;-81
2022/08/24 11:27:57;;;;;;;11.90;11.50;;;30.20;99.90;;;;;;5125155;28;20327;-82
2022/08/24 11:30:28;;;;;;;11.73;11.32;;;30.40;99.90;;;;;;5123534;28;20290;-81
2022/08/24 11:33:03;;;;;;;11.90;11.50;;;30.50;99.90;;;;;;5123449;28;20232;-81
2022/08/24 11:35:41;;;;;;;11.90;11.50;;;31.00;99.90;;;;;;5123644;28;20243;-81
2022/08/24 11:38:22;;;;;;;11.82;11.43;;;31.30;99.90;;;;;;5124450;28;20231;-81
2022/08/24 11:41:01;;;;;;;11.85;11.45;;;31.60;99.90;;;;;;5124415;28;20232;-81
2022/08/24 11:43:48;;;;;;;11.98;11.57;;;32.00;99.90;;;;;;5122302;28;20263;-82
2022/08/24 11:46:26;;;;;;;12.00;11.60;;;32.30;99.90;;;;;;5123244;28;20267;-82
2022/08/24 11:49:10;;;;;;;11.98;11.57;;;32.80;99.90;;;;;;5124954;28;20232;-81
2022/08/24 11:51:48;;;;;;;11.57;11.25;;;33.10;99.90;;;;;;5127570;28;20227;-81
2022/08/24 11:54:31;;;;;;;11.80;11.40;;;33.10;99.90;;;;;;5122519;28;20245;-82
2022/08/24 11:57:09;;;;;;;11.80;11.40;;;33.10;99.90;;;;;;5111264;28;20236;-84
2022/08/24 11:59:46;;;;;;;11.68;11.27;;;33.30;99.90;;;;;;5124028;28;20221;-82
2022/08/24 12:02:25;;;;;;;11.60;11.20;;;33.50;99.90;;;;;;5122114;28;20237;-84
2022/08/24 12:05:02;;;;;;;11.70;11.30;;;33.70;99.90;;;;;;5121689;28;20259;-81
2022/08/24 12:07:46;;;;;;;11.88;11.48;;;34.00;99.90;;;;;;5112690;28;20220;-81
2022/08/24 12:10:29;;;;;;;12.02;11.63;;;34.30;99.90;;;;;;5122963;28;20239;-82
2022/08/24 12:13:08;;;;;;;12.00;11.60;;;34.40;99.90;;;;;;5124128;28;20232;-89
2022/08/24 12:15:47;;;;;;;11.98;11.57;;;34.10;99.90;;;;;;5123474;28;20215;-83
2022/08/24 12:18:34;;;;;;;11.80;11.40;;;33.70;99.90;;;;;;5124022;28;20271;-85
2022/08/24 12:21:02;;;;;;;11.70;11.30;;;33.70;99.90;;;;;;5117623;28;20224;-83
2022/08/24 12:23:40;;;;;;;11.25;10.95;;;33.70;99.90;;;;;;5122719;28;20327;-84
2022/08/24 12:26:19;;;;;;;10.70;10.40;;;33.60;99.90;;;;;;5123991;28;20311;-83
2022/08/24 12:28:57;;;;;;;10.95;10.65;;;33.20;99.90;;;;;;5125020;28;20315;-83
2022/08/24 12:31:42;;;;;;;11.13;10.82;;;33.00;99.90;;;;;;5124354;28;20288;-83
2022/08/24 12:34:21;;;;;;;11.15;10.85;;;33.00;99.90;;;;;;5120312;27;20224;-83
2022/08/24 12:37:01;;;;;;;10.80;10.50;;;33.40;99.90;;;;;;5127856;28;20236;-82
2022/08/24 12:39:38;;;;;;;11.00;10.70;;;33.60;99.90;;;;;;5127775;28;20233;-82
2022/08/24 12:42:19;;;;;;;11.85;11.45;;;33.50;99.90;;;;;;5129084;28;20278;-82
2022/08/24 12:44:54;;;;;;;11.80;11.40;;;33.20;99.90;;;;;;5132938;28;20232;-82
2022/08/24 12:47:32;;;;;;;11.50;11.20;;;33.20;99.90;;;;;;5131757;28;20236;-82
2022/08/24 12:50:10;;;;;;;11.60;11.30;;;33.00;99.90;;;;;;5128680;28;20278;-82
2022/08/24 12:53:18;;;;;;;11.77;11.38;;;32.40;99.90;;;;;;5128418;28;20239;-83
2022/08/24 12:56:40;;;;;;;11.75;11.35;;;31.80;99.90;;;;;;5124357;28;20343;-82
2022/08/24 12:59:19;;;;;;;11.27;10.98;;;31.40;99.90;;;;;;5062618;28;20257;-81
2022/08/24 13:02:03;;;;;;;11.27;10.98;;;31.10;99.90;;;;;;5061914;28;20231;-82
2022/08/24 13:04:41;;;;;;;11.25;10.95;;;31.00;99.90;;;;;;5118041;27;20232;-82
2022/08/24 13:07:13;;;;;;;11.20;10.90;;;30.90;99.90;;;;;;5137035;27;20247;-82
2022/08/24 13:09:49;;;;;;;11.10;10.80;;;30.80;99.90;;;;;;5139364;28;20224;-82
2022/08/24 13:13:11;;;;;;;11.02;10.73;;;30.50;99.90;;;;;;5128505;28;20258;-81
2022/08/24 13:16:01;;;;;;;11.30;11.00;;;30.40;99.90;;;;;;5086202;28;20278;-82
2022/08/24 13:18:55;;;;;;;11.38;11.07;;;30.30;99.90;;;;;;5129349;28;20264;-82
2022/08/24 13:21:52;;;;;;;11.45;11.15;;;30.20;99.90;;;;;;5111698;28;20315;-82
2022/08/24 13:25:03;;;;;;;11.38;11.07;;;30.20;99.90;;;;;;5139932;27;20197;-83
2022/08/24 13:28:08;;;;;;;11.80;11.40;;;30.20;99.90;;;;;;5132469;27;20268;-83
2022/08/24 13:31:12;;;;;;;11.80;11.40;;;30.00;99.90;;;;;;5108268;28;20277;-83
2022/08/24 13:33:45;;;;;;;10.60;10.30;;;29.90;99.90;;;;;;5120785;28;20312;-82